sensor_id;sensor_type;location;lat;lon;timestamp;pressure;altitude;pressure_sealevel;temperature;humidity
32933;BME280;19444;50.518;10.870;2023-03-04T00:00:20;97006.00;;;-1.06;100.00
32933;BME280;19444;50.518;10.870;2023-03-04T00:03:17;96998.78;;;-0.81;100.00
32933;BME280;19444;50.518;10.870;2023-03-04T00:06:15;97003.97;;;-0.93;100.00
32933;BME280;19444;50.518;10.870;2023-03-04T00:09:11;97003.72;;;-1.03;100.00
32933;BME280;19444;50.518;10.870;2023-03-04T00:12:08;96993.47;;;-1.11;100.00
32933;BME280;19444;50.518;10.870;2023-03-04T00:15:06;97002.91;;;-1.03;100.00
32933;BME280;19444;50.518;10.870;2023-03-04T00:18:03;97003.34;;;-1.06;100.00
32933;BME280;19444;50.518;10.870;2023-03-04T00:21:00;96998.28;;;-0.90;100.00
32933;BME280;19444;50.518;10.870;2023-03-04T00:23:57;96990.53;;;-0.84;100.00
32933;BME280;19444;50.518;10.870;2023-03-04T00:26:54;96994.00;;;-1.02;100.00
32933;BME280;19444;50.518;10.870;2023-03-04T00:29:51;96992.75;;;-0.70;100.00
32933;BME280;19444;50.518;10.870;2023-03-04T00:32:48;96998.84;;;-0.58;100.00
32933;BME280;19444;50.518;10.870;2023-03-04T00:35:44;96996.78;;;-0.67;100.00
32933;BME280;19444;50.518;10.870;2023-03-04T00:38:41;97002.75;;;-0.60;100.00
32933;BME280;19444;50.518;10.870;2023-03-04T00:41:39;96993.72;;;-0.82;100.00
32933;BME280;19444;50.518;10.870;2023-03-04T00:44:36;96995.44;;;-0.88;100.00
32933;BME280;19444;50.518;10.870;2023-03-04T00:47:32;96995.44;;;-0.58;100.00
32933;BME280;19444;50.518;10.870;2023-03-04T00:50:29;96980.69;;;-0.47;100.00
32933;BME280;19444;50.518;10.870;2023-03-04T00:53:26;96986.00;;;-0.66;100.00
32933;BME280;19444;50.518;10.870;2023-03-04T00:56:23;96978.44;;;-0.44;100.00
32933;BME280;19444;50.518;10.870;2023-03-04T00:59:20;96982.63;;;-0.54;100.00
32933;BME280;19444;50.518;10.870;2023-03-04T01:02:17;96963.97;;;-0.53;100.00
32933;BME280;19444;50.518;10.870;2023-03-04T01:05:14;96971.88;;;-0.53;100.00
32933;BME280;19444;50.518;10.870;2023-03-04T01:08:11;96964.00;;;-0.41;100.00
32933;BME280;19444;50.518;10.870;2023-03-04T01:11:07;96958.97;;;-0.43;100.00
32933;BME280;19444;50.518;10.870;2023-03-04T01:14:04;96960.91;;;-0.38;100.00
32933;BME280;19444;50.518;10.870;2023-03-04T01:17:01;96951.84;;;-0.54;100.00
32933;BME280;19444;50.518;10.870;2023-03-04T01:19:58;96963.53;;;-0.50;100.00
32933;BME280;19444;50.518;10.870;2023-03-04T01:22:55;96957.66;;;-0.64;100.00
32933;BME280;19444;50.518;10.870;2023-03-04T01:25:52;96951.72;;;-0.59;100.00
32933;BME280;19444;50.518;10.870;2023-03-04T01:28:49;96945.22;;;-0.45;100.00
32933;BME280;19444;50.518;10.870;2023-03-04T01:31:46;96943.16;;;-0.43;100.00
32933;BME280;19444;50.518;10.870;2023-03-04T01:34:43;96938.69;;;-0.42;100.00
32933;BME280;19444;50.518;10.870;2023-03-04T01:37:40;96945.22;;;-0.45;100.00
32933;BME280;19444;50.518;10.870;2023-03-04T01:40:37;96920.75;;;-0.34;100.00
32933;BME280;19444;50.518;10.870;2023-03-04T01:43:35;96918.91;;;-0.33;100.00
32933;BME280;19444;50.518;10.870;2023-03-04T01:46:33;96919.72;;;-0.21;100.00
32933;BME280;19444;50.518;10.870;2023-03-04T01:49:30;96924.59;;;-0.60;100.00
32933;BME280;19444;50.518;10.870;2023-03-04T01:52:27;96908.69;;;-0.53;100.00
32933;BME280;19444;50.518;10.870;2023-03-04T01:55:24;96909.84;;;-0.37;100.00
32933;BME280;19444;50.518;10.870;2023-03-04T01:58:31;96909.41;;;-0.34;100.00
32933;BME280;19444;50.518;10.870;2023-03-04T02:01:28;96908.13;;;-0.43;100.00
32933;BME280;19444;50.518;10.870;2023-03-04T02:04:29;96909.84;;;-0.37;100.00
32933;BME280;19444;50.518;10.870;2023-03-04T02:07:28;96905.28;;;-0.18;100.00
32933;BME280;19444;50.518;10.870;2023-03-04T02:10:25;96904.25;;;-0.29;100.00
32933;BME280;19444;50.518;10.870;2023-03-04T02:13:22;96904.47;;;-0.31;100.00
32933;BME280;19444;50.518;10.870;2023-03-04T02:16:19;96894.03;;;-0.37;100.00
32933;BME280;19444;50.518;10.870;2023-03-04T02:22:33;96899.44;;;-0.44;100.00
32933;BME280;19444;50.518;10.870;2023-03-04T02:29:05;96889.81;;;-0.50;100.00
32933;BME280;19444;50.518;10.870;2023-03-04T02:32:03;96879.16;;;-0.20;100.00
32933;BME280;19444;50.518;10.870;2023-03-04T02:35:00;96885.59;;;-0.16;100.00
32933;BME280;19444;50.518;10.870;2023-03-04T02:37:56;96876.06;;;-0.05;100.00
32933;BME280;19444;50.518;10.870;2023-03-04T02:40:54;96874.84;;;-0.26;100.00
32933;BME280;19444;50.518;10.870;2023-03-04T02:43:54;96873.78;;;-0.02;100.00
32933;BME280;19444;50.518;10.870;2023-03-04T02:46:51;96873.34;;;0.02;100.00
32933;BME280;19444;50.518;10.870;2023-03-04T02:49:48;96864.06;;;-0.13;100.00
32933;BME280;19444;50.518;10.870;2023-03-04T02:52:45;96860.63;;;-0.25;100.00
32933;BME280;19444;50.518;10.870;2023-03-04T02:55:42;96858.25;;;-0.26;100.00
32933;BME280;19444;50.518;10.870;2023-03-04T02:58:39;96873.31;;;-0.10;100.00
32933;BME280;19444;50.518;10.870;2023-03-04T03:01:36;96857.88;;;-0.07;100.00
32933;BME280;19444;50.518;10.870;2023-03-04T03:04:36;96858.56;;;-0.11;100.00
32933;BME280;19444;50.518;10.870;2023-03-04T03:07:33;96859.03;;;-0.26;100.00
32933;BME280;19444;50.518;10.870;2023-03-04T03:10:30;96853.84;;;-0.09;100.00
32933;BME280;19444;50.518;10.870;2023-03-04T03:13:28;96857.53;;;0.02;100.00
32933;BME280;19444;50.518;10.870;2023-03-04T03:16:25;96851.34;;;-0.16;100.00
32933;BME280;19444;50.518;10.870;2023-03-04T03:19:22;96846.31;;;-0.06;100.00
32933;BME280;19444;50.518;10.870;2023-03-04T03:22:19;96849.03;;;-0.01;100.00
32933;BME280;19444;50.518;10.870;2023-03-04T03:25:16;96849.19;;;-0.31;100.00
32933;BME280;19444;50.518;10.870;2023-03-04T03:28:13;96861.31;;;-0.18;100.00
32933;BME280;19444;50.518;10.870;2023-03-04T03:31:10;96855.00;;;-0.05;100.00
32933;BME280;19444;50.518;10.870;2023-03-04T03:34:07;96843.88;;;0.05;100.00
32933;BME280;19444;50.518;10.870;2023-03-04T03:37:04;96843.56;;;-0.22;100.00
32933;BME280;19444;50.518;10.870;2023-03-04T03:40:01;96852.69;;;-0.02;100.00
32933;BME280;19444;50.518;10.870;2023-03-04T03:42:57;96852.25;;;-0.10;100.00
32933;BME280;19444;50.518;10.870;2023-03-04T03:45:54;96851.81;;;-0.07;100.00
32933;BME280;19444;50.518;10.870;2023-03-04T03:48:51;96857.31;;;-0.09;100.00
32933;BME280;19444;50.518;10.870;2023-03-04T03:51:48;96856.38;;;0.09;100.00
32933;BME280;19444;50.518;10.870;2023-03-04T03:54:45;96850.75;;;0.06;100.00
32933;BME280;19444;50.518;10.870;2023-03-04T03:57:42;96849.06;;;-0.59;100.00
32933;BME280;19444;50.518;10.870;2023-03-04T04:00:39;96846.31;;;-0.06;100.00
32933;BME280;19444;50.518;10.870;2023-03-04T04:03:35;96839.88;;;-0.10;100.00
32933;BME280;19444;50.518;10.870;2023-03-04T04:06:32;96841.13;;;0.11;100.00
32933;BME280;19444;50.518;10.870;2023-03-04T04:09:29;96842.00;;;0.17;100.00
32933;BME280;19444;50.518;10.870;2023-03-04T04:12:26;96833.31;;;0.16;100.00
32933;BME280;19444;50.518;10.870;2023-03-04T04:15:23;96847.09;;;-0.05;100.00
32933;BME280;19444;50.518;10.870;2023-03-04T04:18:20;96846.31;;;-0.17;100.00
32933;BME280;19444;50.518;10.870;2023-03-04T04:21:17;96839.66;;;-0.08;100.00
32933;BME280;19444;50.518;10.870;2023-03-04T04:24:14;96847.22;;;0.00;100.00
32933;BME280;19444;50.518;10.870;2023-03-04T04:27:11;96844.34;;;-0.10;100.00
32933;BME280;19444;50.518;10.870;2023-03-04T04:30:09;96845.16;;;-0.10;100.00
32933;BME280;19444;50.518;10.870;2023-03-04T04:33:06;96855.13;;;0.00;100.00
32933;BME280;19444;50.518;10.870;2023-03-04T04:36:03;96853.75;;;0.09;100.00
32933;BME280;19444;50.518;10.870;2023-03-04T04:39:00;96849.84;;;0.00;100.00
32933;BME280;19444;50.518;10.870;2023-03-04T04:41:57;96853.03;;;-0.10;100.00
32933;BME280;19444;50.518;10.870;2023-03-04T04:44:54;96844.69;;;0.05;100.00
32933;BME280;19444;50.518;10.870;2023-03-04T04:47:54;96849.16;;;-0.07;100.00
32933;BME280;19444;50.518;10.870;2023-03-04T04:50:54;96847.31;;;0.05;100.00
32933;BME280;19444;50.518;10.870;2023-03-04T04:53:52;96842.97;;;-0.01;100.00
32933;BME280;19444;50.518;10.870;2023-03-04T04:56:48;96843.63;;;0.06;100.00
32933;BME280;19444;50.518;10.870;2023-03-04T04:59:45;96848.13;;;-0.06;100.00
32933;BME280;19444;50.518;10.870;2023-03-04T05:02:42;96846.19;;;-0.11;100.00
32933;BME280;19444;50.518;10.870;2023-03-04T05:05:40;96849.84;;;0.00;100.00
32933;BME280;19444;50.518;10.870;2023-03-04T05:08:37;96848.69;;;0.08;100.00
32933;BME280;19444;50.518;10.870;2023-03-04T05:11:34;96848.47;;;-0.03;100.00
32933;BME280;19444;50.518;10.870;2023-03-04T05:14:31;96851.19;;;0.14;100.00
32933;BME280;19444;50.518;10.870;2023-03-04T05:17:27;96845.91;;;0.14;100.00
32933;BME280;19444;50.518;10.870;2023-03-04T05:20:24;96846.28;;;0.06;100.00
32933;BME280;19444;50.518;10.870;2023-03-04T05:23:24;96848.34;;;0.04;100.00
32933;BME280;19444;50.518;10.870;2023-03-04T05:26:21;96842.94;;;0.22;100.00
32933;BME280;19444;50.518;10.870;2023-03-04T05:29:18;96848.75;;;0.24;100.00
32933;BME280;19444;50.518;10.870;2023-03-04T05:32:15;96835.88;;;-0.12;100.00
32933;BME280;19444;50.518;10.870;2023-03-04T05:35:11;96844.00;;;-0.02;100.00
32933;BME280;19444;50.518;10.870;2023-03-04T05:38:12;96845.72;;;0.04;100.00
32933;BME280;19444;50.518;10.870;2023-03-04T05:41:09;96847.34;;;-0.07;100.00
32933;BME280;19444;50.518;10.870;2023-03-04T05:44:06;96845.94;;;0.03;100.00
32933;BME280;19444;50.518;10.870;2023-03-04T05:47:03;96831.38;;;0.12;100.00
32933;BME280;19444;50.518;10.870;2023-03-04T05:49:59;96847.63;;;0.09;100.00
32933;BME280;19444;50.518;10.870;2023-03-04T05:52:56;96847.31;;;0.05;100.00
32933;BME280;19444;50.518;10.870;2023-03-04T05:55:54;96855.69;;;0.02;100.00
32933;BME280;19444;50.518;10.870;2023-03-04T05:58:51;96858.88;;;0.04;100.00
32933;BME280;19444;50.518;10.870;2023-03-04T06:01:48;96857.63;;;0.07;100.00
32933;BME280;19444;50.518;10.870;2023-03-04T06:04:45;96860.38;;;0.12;100.00
32933;BME280;19444;50.518;10.870;2023-03-04T06:07:43;96862.88;;;0.07;100.00
32933;BME280;19444;50.518;10.870;2023-03-04T06:10:41;96866.00;;;-0.20;100.00
32933;BME280;19444;50.518;10.870;2023-03-04T06:13:38;96872.88;;;0.05;100.00
32933;BME280;19444;50.518;10.870;2023-03-04T06:16:35;96872.59;;;0.18;100.00
32933;BME280;19444;50.518;10.870;2023-03-04T06:19:32;96878.59;;;-0.10;100.00
32933;BME280;19444;50.518;10.870;2023-03-04T06:22:29;96873.16;;;0.32;100.00
32933;BME280;19444;50.518;10.870;2023-03-04T06:25:26;96882.31;;;0.41;100.00
32933;BME280;19444;50.518;10.870;2023-03-04T06:28:23;96881.34;;;-0.05;100.00
32933;BME280;19444;50.518;10.870;2023-03-04T06:31:20;96887.28;;;0.14;100.00
32933;BME280;19444;50.518;10.870;2023-03-04T06:34:17;96898.50;;;0.21;100.00
32933;BME280;19444;50.518;10.870;2023-03-04T06:37:14;96888.56;;;0.51;100.00
32933;BME280;19444;50.518;10.870;2023-03-04T06:40:12;96891.56;;;0.43;100.00
32933;BME280;19444;50.518;10.870;2023-03-04T06:43:09;96901.31;;;0.43;100.00
32933;BME280;19444;50.518;10.870;2023-03-04T06:46:07;96895.81;;;0.44;100.00
32933;BME280;19444;50.518;10.870;2023-03-04T06:49:04;96900.63;;;0.47;100.00
32933;BME280;19444;50.518;10.870;2023-03-04T06:52:01;96903.63;;;0.39;100.00
32933;BME280;19444;50.518;10.870;2023-03-04T06:54:58;96900.91;;;0.63;100.00
32933;BME280;19444;50.518;10.870;2023-03-04T06:57:55;96904.06;;;0.48;100.00
32933;BME280;19444;50.518;10.870;2023-03-04T07:00:52;96905.63;;;0.61;100.00
32933;BME280;19444;50.518;10.870;2023-03-04T07:03:50;96902.63;;;0.69;100.00
32933;BME280;19444;50.518;10.870;2023-03-04T07:06:48;96904.53;;;0.85;100.00
32933;BME280;19444;50.518;10.870;2023-03-04T07:09:45;96906.38;;;0.84;100.00
32933;BME280;19444;50.518;10.870;2023-03-04T07:12:42;96899.19;;;0.97;100.00
32933;BME280;19444;50.518;10.870;2023-03-04T07:15:39;96906.31;;;0.68;100.00
32933;BME280;19444;50.518;10.870;2023-03-04T07:18:37;96902.41;;;0.99;100.00
32933;BME280;19444;50.518;10.870;2023-03-04T07:21:34;96896.59;;;1.13;100.00
32933;BME280;19444;50.518;10.870;2023-03-04T07:24:31;96894.34;;;1.05;100.00
32933;BME280;19444;50.518;10.870;2023-03-04T07:27:27;96901.84;;;0.97;100.00
32933;BME280;19444;50.518;10.870;2023-03-04T07:30:24;96901.97;;;0.90;100.00
32933;BME280;19444;50.518;10.870;2023-03-04T07:33:21;96900.63;;;0.88;100.00
32933;BME280;19444;50.518;10.870;2023-03-04T07:36:18;96901.06;;;1.13;100.00
32933;BME280;19444;50.518;10.870;2023-03-04T07:39:15;96904.44;;;1.25;100.00
32933;BME280;19444;50.518;10.870;2023-03-04T07:42:12;96896.94;;;1.34;100.00
32933;BME280;19444;50.518;10.870;2023-03-04T07:45:10;96887.91;;;1.30;100.00
32933;BME280;19444;50.518;10.870;2023-03-04T07:48:06;96898.81;;;1.50;100.00
32933;BME280;19444;50.518;10.870;2023-03-04T07:51:08;96886.94;;;1.53;100.00
32933;BME280;19444;50.518;10.870;2023-03-04T07:54:05;96884.94;;;1.77;100.00
32933;BME280;19444;50.518;10.870;2023-03-04T07:57:02;96886.00;;;1.59;100.00
32933;BME280;19444;50.518;10.870;2023-03-04T07:59:59;96894.78;;;1.64;100.00
32933;BME280;19444;50.518;10.870;2023-03-04T08:02:56;96890.28;;;1.82;100.00
32933;BME280;19444;50.518;10.870;2023-03-04T08:05:53;96888.44;;;1.99;100.00
32933;BME280;19444;50.518;10.870;2023-03-04T08:09:02;96900.25;;;1.75;100.00
32933;BME280;19444;50.518;10.870;2023-03-04T08:12:00;96893.25;;;2.02;100.00
32933;BME280;19444;50.518;10.870;2023-03-04T08:14:56;96895.66;;;2.04;100.00
32933;BME280;19444;50.518;10.870;2023-03-04T08:17:53;96896.06;;;1.95;100.00
32933;BME280;19444;50.518;10.870;2023-03-04T08:20:50;96890.94;;;2.27;100.00
32933;BME280;19444;50.518;10.870;2023-03-04T08:23:49;96895.84;;;2.19;100.00
32933;BME280;19444;50.518;10.870;2023-03-04T08:26:49;96898.81;;;2.22;100.00
32933;BME280;19444;50.518;10.870;2023-03-04T08:29:46;96898.72;;;2.17;100.00
32933;BME280;19444;50.518;10.870;2023-03-04T08:32:43;96900.81;;;2.15;100.00
32933;BME280;19444;50.518;10.870;2023-03-04T08:35:40;96901.34;;;2.34;100.00
32933;BME280;19444;50.518;10.870;2023-03-04T08:38:37;96897.41;;;1.98;100.00
32933;BME280;19444;50.518;10.870;2023-03-04T08:41:34;96899.66;;;2.28;100.00
32933;BME280;19444;50.518;10.870;2023-03-04T08:44:31;96904.28;;;2.38;100.00
32933;BME280;19444;50.518;10.870;2023-03-04T08:47:28;96901.22;;;2.46;100.00
32933;BME280;19444;50.518;10.870;2023-03-04T08:50:24;96896.59;;;2.14;100.00
32933;BME280;19444;50.518;10.870;2023-03-04T08:53:23;96894.06;;;2.46;100.00
32933;BME280;19444;50.518;10.870;2023-03-04T08:56:20;96895.88;;;2.41;100.00
32933;BME280;19444;50.518;10.870;2023-03-04T08:59:17;96906.88;;;2.54;100.00
32933;BME280;19444;50.518;10.870;2023-03-04T09:02:14;96890.38;;;2.91;100.00
32933;BME280;19444;50.518;10.870;2023-03-04T09:05:11;96902.47;;;2.60;100.00
32933;BME280;19444;50.518;10.870;2023-03-04T09:08:08;96893.41;;;2.56;100.00
32933;BME280;19444;50.518;10.870;2023-03-04T09:11:06;96884.81;;;2.66;100.00
32933;BME280;19444;50.518;10.870;2023-03-04T09:14:02;96891.06;;;2.38;100.00
32933;BME280;19444;50.518;10.870;2023-03-04T09:17:00;96895.00;;;2.79;100.00
32933;BME280;19444;50.518;10.870;2023-03-04T09:19:57;96876.53;;;2.84;100.00
32933;BME280;19444;50.518;10.870;2023-03-04T09:22:53;96885.06;;;2.91;100.00
32933;BME280;19444;50.518;10.870;2023-03-04T09:25:50;96886.34;;;2.83;100.00
32933;BME280;19444;50.518;10.870;2023-03-04T09:28:56;96875.78;;;2.89;100.00
32933;BME280;19444;50.518;10.870;2023-03-04T09:31:54;96876.53;;;2.84;100.00
32933;BME280;19444;50.518;10.870;2023-03-04T09:34:51;96878.34;;;2.56;100.00
32933;BME280;19444;50.518;10.870;2023-03-04T09:37:48;96876.69;;;3.26;100.00
32933;BME280;19444;50.518;10.870;2023-03-04T09:40:47;96882.22;;;2.98;100.00
32933;BME280;19444;50.518;10.870;2023-03-04T09:43:46;96892.97;;;2.86;100.00
32933;BME280;19444;50.518;10.870;2023-03-04T09:46:44;96884.59;;;2.72;100.00
32933;BME280;19444;50.518;10.870;2023-03-04T09:49:57;96892.13;;;2.59;100.00
32933;BME280;19444;50.518;10.870;2023-03-04T09:53:28;96889.22;;;3.09;100.00
32933;BME280;19444;50.518;10.870;2023-03-04T09:56:22;96887.81;;;3.01;100.00
32933;BME280;19444;50.518;10.870;2023-03-04T10:06:20;96886.09;;;3.12;100.00
32933;BME280;19444;50.518;10.870;2023-03-04T10:09:28;96883.47;;;3.17;100.00
32933;BME280;19444;50.518;10.870;2023-03-04T10:12:28;96870.66;;;3.31;100.00
32933;BME280;19444;50.518;10.870;2023-03-04T10:15:41;96881.88;;;3.16;100.00
32933;BME280;19444;50.518;10.870;2023-03-04T10:18:54;96880.00;;;3.43;100.00
32933;BME280;19444;50.518;10.870;2023-03-04T10:21:52;96877.13;;;3.18;100.00
32933;BME280;19444;50.518;10.870;2023-03-04T10:24:51;96871.22;;;3.38;100.00
32933;BME280;19444;50.518;10.870;2023-03-04T10:27:57;96869.13;;;3.40;100.00
32933;BME280;19444;50.518;10.870;2023-03-04T10:31:21;96872.78;;;3.07;100.00
32933;BME280;19444;50.518;10.870;2023-03-04T10:34:24;96871.78;;;2.86;100.00
32933;BME280;19444;50.518;10.870;2023-03-04T10:37:22;96863.50;;;3.31;100.00
32933;BME280;19444;50.518;10.870;2023-03-04T10:40:22;96861.28;;;3.55;100.00
32933;BME280;19444;50.518;10.870;2023-03-04T10:43:20;96860.38;;;3.39;100.00
32933;BME280;19444;50.518;10.870;2023-03-04T10:46:20;96863.44;;;3.26;100.00
32933;BME280;19444;50.518;10.870;2023-03-04T10:49:19;96858.56;;;3.45;100.00
32933;BME280;19444;50.518;10.870;2023-03-04T10:52:28;96861.25;;;3.18;100.00
32933;BME280;19444;50.518;10.870;2023-03-04T10:55:28;96856.16;;;3.43;100.00
32933;BME280;19444;50.518;10.870;2023-03-04T10:58:25;96853.19;;;3.35;100.00
32933;BME280;19444;50.518;10.870;2023-03-04T11:01:22;96844.09;;;3.58;100.00
32933;BME280;19444;50.518;10.870;2023-03-04T11:04:26;96847.53;;;3.21;100.00
32933;BME280;19444;50.518;10.870;2023-03-04T11:07:25;96851.19;;;3.52;100.00
32933;BME280;19444;50.518;10.870;2023-03-04T11:10:37;96841.63;;;2.87;100.00
32933;BME280;19444;50.518;10.870;2023-03-04T11:13:35;96842.34;;;3.09;100.00
32933;BME280;19444;50.518;10.870;2023-03-04T11:16:32;96837.56;;;3.06;100.00
32933;BME280;19444;50.518;10.870;2023-03-04T11:19:38;96833.13;;;3.12;100.00
32933;BME280;19444;50.518;10.870;2023-03-04T11:22:35;96827.75;;;3.34;100.00
32933;BME280;19444;50.518;10.870;2023-03-04T11:25:37;96825.50;;;3.53;100.00
32933;BME280;19444;50.518;10.870;2023-03-04T11:32:20;96822.69;;;4.17;100.00
32933;BME280;19444;50.518;10.870;2023-03-04T11:38:31;96816.22;;;3.50;100.00
32933;BME280;19444;50.518;10.870;2023-03-04T11:41:54;96817.06;;;3.24;100.00
32933;BME280;19444;50.518;10.870;2023-03-04T11:44:54;96823.66;;;3.53;100.00
32933;BME280;19444;50.518;10.870;2023-03-04T11:48:31;96814.22;;;4.20;100.00
32933;BME280;19444;50.518;10.870;2023-03-04T12:22:35;96790.91;;;3.32;100.00
32933;BME280;19444;50.518;10.870;2023-03-04T12:29:02;96772.28;;;4.07;100.00
32933;BME280;19444;50.518;10.870;2023-03-04T12:32:09;96770.63;;;3.95;100.00
32933;BME280;19444;50.518;10.870;2023-03-04T12:35:56;96772.94;;;3.82;100.00
32933;BME280;19444;50.518;10.870;2023-03-04T12:39:12;96770.16;;;4.04;100.00
32933;BME280;19444;50.518;10.870;2023-03-04T12:43:01;96764.66;;;4.25;100.00
32933;BME280;19444;50.518;10.870;2023-03-04T12:53:22;96755.16;;;4.40;100.00
32933;BME280;19444;50.518;10.870;2023-03-04T12:56:28;96751.03;;;3.96;100.00
32933;BME280;19444;50.518;10.870;2023-03-04T13:03:20;96753.81;;;4.32;100.00
32933;BME280;19444;50.518;10.870;2023-03-04T13:06:45;96739.75;;;4.32;100.00
32933;BME280;19444;50.518;10.870;2023-03-04T13:10:09;96737.13;;;4.52;100.00
32933;BME280;19444;50.518;10.870;2023-03-04T13:13:41;96733.81;;;4.09;100.00
32933;BME280;19444;50.518;10.870;2023-03-04T13:16:56;96727.00;;;4.34;100.00
32933;BME280;19444;50.518;10.870;2023-03-04T13:23:28;96727.47;;;4.20;100.00
32933;BME280;19444;50.518;10.870;2023-03-04T13:26:35;96733.50;;;3.95;100.00
32933;BME280;19444;50.518;10.870;2023-03-04T13:29:33;96722.94;;;4.11;100.00
32933;BME280;19444;50.518;10.870;2023-03-04T13:32:37;96733.34;;;3.65;100.00
32933;BME280;19444;50.518;10.870;2023-03-04T13:42:42;96734.28;;;3.91;100.00
32933;BME280;19444;50.518;10.870;2023-03-04T13:45:40;96724.03;;;4.15;100.00
32933;BME280;19444;50.518;10.870;2023-03-04T13:48:37;96729.38;;;4.35;100.00
32933;BME280;19444;50.518;10.870;2023-03-04T13:51:38;96719.50;;;4.05;100.00
32933;BME280;19444;50.518;10.870;2023-03-04T13:54:37;96708.59;;;4.02;100.00
32933;BME280;19444;50.518;10.870;2023-03-04T13:57:35;96709.22;;;4.24;100.00
32933;BME280;19444;50.518;10.870;2023-03-04T14:00:35;96706.25;;;4.05;100.00
32933;BME280;19444;50.518;10.870;2023-03-04T14:03:34;96708.75;;;3.69;100.00
32933;BME280;19444;50.518;10.870;2023-03-04T14:06:31;96708.25;;;3.78;100.00
32933;BME280;19444;50.518;10.870;2023-03-04T14:09:32;96696.75;;;4.35;100.00
32933;BME280;19444;50.518;10.870;2023-03-04T14:12:35;96701.59;;;3.70;100.00
32933;BME280;19444;50.518;10.870;2023-03-04T14:15:33;96694.84;;;4.20;100.00
32933;BME280;19444;50.518;10.870;2023-03-04T14:18:31;96689.31;;;4.21;100.00
32933;BME280;19444;50.518;10.870;2023-03-04T14:21:29;96690.91;;;4.22;100.00
32933;BME280;19444;50.518;10.870;2023-03-04T14:24:26;96689.53;;;4.05;100.00
32933;BME280;19444;50.518;10.870;2023-03-04T14:27:27;96684.75;;;4.07;100.00
32933;BME280;19444;50.518;10.870;2023-03-04T14:30:26;96684.09;;;3.74;100.00
32933;BME280;19444;50.518;10.870;2023-03-04T14:33:50;96681.28;;;3.96;100.00
32933;BME280;19444;50.518;10.870;2023-03-04T14:36:49;96676.81;;;4.17;100.00
32933;BME280;19444;50.518;10.870;2023-03-04T14:39:49;96672.00;;;3.98;100.00
32933;BME280;19444;50.518;10.870;2023-03-04T14:42:48;96669.84;;;3.90;100.00
32933;BME280;19444;50.518;10.870;2023-03-04T14:45:51;96656.66;;;4.16;100.00
32933;BME280;19444;50.518;10.870;2023-03-04T14:48:52;96653.44;;;3.98;100.00
32933;BME280;19444;50.518;10.870;2023-03-04T14:51:52;96652.91;;;4.02;100.00
32933;BME280;19444;50.518;10.870;2023-03-04T14:58:30;96657.66;;;3.89;100.00
32933;BME280;19444;50.518;10.870;2023-03-04T15:01:32;96650.50;;;3.90;100.00
32933;BME280;19444;50.518;10.870;2023-03-04T15:04:29;96646.31;;;4.04;100.00
32933;BME280;19444;50.518;10.870;2023-03-04T15:07:33;96647.59;;;3.91;100.00
32933;BME280;19444;50.518;10.870;2023-03-04T15:10:36;96642.84;;;4.09;100.00
32933;BME280;19444;50.518;10.870;2023-03-04T15:13:44;96643.38;;;3.95;100.00
32933;BME280;19444;50.518;10.870;2023-03-04T15:16:55;96648.69;;;4.06;100.00
32933;BME280;19444;50.518;10.870;2023-03-04T15:19:59;96645.53;;;4.19;100.00
32933;BME280;19444;50.518;10.870;2023-03-04T15:23:01;96652.19;;;4.21;100.00
32933;BME280;19444;50.518;10.870;2023-03-04T15:26:01;96647.06;;;3.99;100.00
32933;BME280;19444;50.518;10.870;2023-03-04T15:28:58;96644.66;;;3.93;100.00
32933;BME280;19444;50.518;10.870;2023-03-04T15:31:55;96644.19;;;4.06;100.00
32933;BME280;19444;50.518;10.870;2023-03-04T15:34:52;96652.09;;;3.91;100.00
32933;BME280;19444;50.518;10.870;2023-03-04T15:37:50;96651.38;;;4.26;100.00
32933;BME280;19444;50.518;10.870;2023-03-04T15:40:51;96657.97;;;4.08;100.00
32933;BME280;19444;50.518;10.870;2023-03-04T15:43:52;96649.66;;;3.74;100.00
32933;BME280;19444;50.518;10.870;2023-03-04T15:46:49;96639.69;;;4.12;100.00
32933;BME280;19444;50.518;10.870;2023-03-04T15:49:45;96644.66;;;3.88;100.00
32933;BME280;19444;50.518;10.870;2023-03-04T15:52:44;96641.56;;;4.21;100.00
32933;BME280;19444;50.518;10.870;2023-03-04T15:55:44;96638.06;;;4.00;100.00
32933;BME280;19444;50.518;10.870;2023-03-04T15:58:42;96652.38;;;3.99;100.00
32933;BME280;19444;50.518;10.870;2023-03-04T16:01:39;96649.47;;;4.01;100.00
32933;BME280;19444;50.518;10.870;2023-03-04T16:04:36;96649.72;;;3.89;100.00
32933;BME280;19444;50.518;10.870;2023-03-04T16:07:36;96643.88;;;3.87;100.00
32933;BME280;19444;50.518;10.870;2023-03-04T16:10:34;96648.63;;;3.75;100.00
32933;BME280;19444;50.518;10.870;2023-03-04T16:13:31;96638.06;;;4.00;100.00
32933;BME280;19444;50.518;10.870;2023-03-04T16:16:28;96636.75;;;3.98;100.00
32933;BME280;19444;50.518;10.870;2023-03-04T16:19:25;96640.97;;;3.94;100.00
32933;BME280;19444;50.518;10.870;2023-03-04T16:22:24;96645.44;;;3.78;100.00
32933;BME280;19444;50.518;10.870;2023-03-04T16:25:25;96643.34;;;3.85;100.00
32933;BME280;19444;50.518;10.870;2023-03-04T16:28:22;96646.56;;;4.03;100.00
32933;BME280;19444;50.518;10.870;2023-03-04T16:31:20;96641.25;;;3.97;100.00
32933;BME280;19444;50.518;10.870;2023-03-04T16:34:17;96643.38;;;4.00;100.00
32933;BME280;19444;50.518;10.870;2023-03-04T16:37:18;96639.84;;;3.75;100.00
32933;BME280;19444;50.518;10.870;2023-03-04T16:40:28;96632.97;;;3.84;100.00
32933;BME280;19444;50.518;10.870;2023-03-04T16:43:26;96637.44;;;3.68;100.00
32933;BME280;19444;50.518;10.870;2023-03-04T16:46:24;96631.63;;;3.71;100.00
32933;BME280;19444;50.518;10.870;2023-03-04T16:49:21;96633.81;;;3.84;100.00
32933;BME280;19444;50.518;10.870;2023-03-04T16:52:36;96636.44;;;3.84;100.00
32933;BME280;19444;50.518;10.870;2023-03-04T16:55:33;96637.78;;;3.87;100.00